createdAt,value
2019-06-20T00:02:58.180Z,28.07
2019-06-20T00:07:59.568Z,30.40
2019-06-20T00:13:01.116Z,33.65
2019-06-20T00:18:02.582Z,35.05
2019-06-20T00:23:04.034Z,32.60
2019-06-20T00:28:05.528Z,28.52
2019-06-20T00:33:07.019Z,26.60
2019-06-20T00:38:08.543Z,28.50
2019-06-20T00:43:17.569Z,30.80
2019-06-20T00:48:13.592Z,29.92
2019-06-20T00:53:14.866Z,30.05
2019-06-20T00:58:16.272Z,32.65
2019-06-20T01:03:17.551Z,31.85
2019-06-20T01:08:18.964Z,32.17
2019-06-20T01:13:33.261Z,32.93
2019-06-20T01:18:23.796Z,36.83
2019-06-20T01:23:25.295Z,35.15
2019-06-20T01:28:26.898Z,37.78
2019-06-20T01:33:28.414Z,39.00
2019-06-20T01:38:29.789Z,40.12
2019-06-20T01:43:31.278Z,38.75
2019-06-20T01:48:32.787Z,37.38
2019-06-20T01:53:34.188Z,42.50
2019-06-20T01:58:35.746Z,41.28
2019-06-20T02:03:37.133Z,37.65
2019-06-20T02:08:38.645Z,37.20
2019-06-20T02:13:40.173Z,38.13
2019-06-20T02:18:41.706Z,42.23
2019-06-20T02:23:43.218Z,45.00
2019-06-20T02:28:45.023Z,42.35
2019-06-20T02:33:46.485Z,43.15
2019-06-20T02:38:47.896Z,45.03
2019-06-20T02:43:49.317Z,45.50
2019-06-20T02:48:50.755Z,48.17
2019-06-20T02:53:52.197Z,46.48
2019-06-20T02:58:53.489Z,50.55
2019-06-20T03:03:54.973Z,44.95
2019-06-20T03:08:56.484Z,53.33
2019-06-20T03:13:57.884Z,47.95
2019-06-20T03:18:59.401Z,53.17
2019-06-20T03:24:00.874Z,54.08
2019-06-20T03:29:02.401Z,55.28
2019-06-20T03:34:03.695Z,60.58
2019-06-20T03:39:05.712Z,76.62
2019-06-20T03:44:06.987Z,66.40
2019-06-20T03:49:08.507Z,63.13
2019-06-20T03:54:09.974Z,63.42
2019-06-20T03:59:11.463Z,58.25
2019-06-20T04:04:13.032Z,58.48
2019-06-20T04:09:14.387Z,58.65
2019-06-20T04:14:15.910Z,58.80
2019-06-20T04:19:17.415Z,61.55
2019-06-20T04:24:18.920Z,62.70
2019-06-20T04:29:20.333Z,63.20
2019-06-20T04:34:21.878Z,64.15
2019-06-20T04:39:25.454Z,64.87
2019-06-20T04:44:26.868Z,59.65
2019-06-20T04:49:28.350Z,58.02
2019-06-20T04:54:29.826Z,54.98
2019-06-20T04:59:31.424Z,54.27
2019-06-20T05:04:33.010Z,55.10
2019-06-20T05:09:34.639Z,53.70
2019-06-20T05:14:36.056Z,55.58
2019-06-20T05:19:37.690Z,54.83
2019-06-20T05:24:39.228Z,50.80
2019-06-20T05:29:40.750Z,52.03
2019-06-20T05:34:42.311Z,49.10
2019-06-20T05:39:43.743Z,48.75
2019-06-20T05:44:45.308Z,46.00
2019-06-20T05:49:46.789Z,45.60
2019-06-20T05:54:48.383Z,42.10
2019-06-20T05:59:49.763Z,38.50
2019-06-20T06:04:51.273Z,36.53
2019-06-20T06:09:52.802Z,37.30
2019-06-20T06:14:54.347Z,35.48
2019-06-20T06:19:55.819Z,36.53
2019-06-20T06:24:57.421Z,33.28
2019-06-20T06:29:59.021Z,30.40
2019-06-20T06:35:00.585Z,29.23
2019-06-20T06:40:02.746Z,27.35
2019-06-20T06:45:04.843Z,25.35
2019-06-20T06:50:06.260Z,24.75
2019-06-20T06:55:07.900Z,22.87
2019-06-20T07:00:09.711Z,20.57
2019-06-20T07:05:11.114Z,20.40
2019-06-20T07:10:12.635Z,18.70
2019-06-20T07:15:14.180Z,18.87
2019-06-20T07:20:15.642Z,17.10
2019-06-20T07:25:17.237Z,17.05
2019-06-20T07:30:19.196Z,17.65
2019-06-20T07:35:20.844Z,18.30
2019-06-20T07:40:22.362Z,19.90
2019-06-20T07:45:27.330Z,18.55
2019-06-20T07:50:29.143Z,18.25
2019-06-20T07:55:30.761Z,18.15
2019-06-20T08:00:33.302Z,17.42
2019-06-20T08:05:34.855Z,16.37
2019-06-20T08:10:36.431Z,19.92
2019-06-20T08:15:37.967Z,17.50
2019-06-20T08:20:39.520Z,15.80
2019-06-20T08:25:41.061Z,16.75
2019-06-20T08:30:45.357Z,16.67
2019-06-20T08:35:46.870Z,18.02
2019-06-20T08:40:48.383Z,18.35
2019-06-20T08:45:49.878Z,19.17
2019-06-20T08:50:51.487Z,19.55
2019-06-20T08:55:52.990Z,19.02
2019-06-20T09:00:55.933Z,18.35
2019-06-20T09:05:58.378Z,17.92
2019-06-20T09:10:59.973Z,17.10
2019-06-20T09:16:03.018Z,19.17
2019-06-20T09:21:04.823Z,17.52
2019-06-20T09:26:06.455Z,17.07
2019-06-20T09:31:08.225Z,14.63
2019-06-20T09:36:10.027Z,15.30
2019-06-20T09:41:11.539Z,13.95
2019-06-20T09:46:13.198Z,13.80
2019-06-20T09:51:14.748Z,13.45
2019-06-20T09:56:16.298Z,15.05
2019-06-20T10:01:18.063Z,12.93
2019-06-20T10:06:19.624Z,13.20
2019-06-20T10:11:21.102Z,12.88
2019-06-20T10:16:22.617Z,12.00
2019-06-20T10:21:24.188Z,13.15
2019-06-20T10:26:26.049Z,12.63
2019-06-20T10:31:27.566Z,12.33
2019-06-20T10:36:29.224Z,10.75
2019-06-20T10:41:30.848Z,8.63
2019-06-20T10:46:32.433Z,8.00
2019-06-20T10:51:34.983Z,8.48
2019-06-20T10:56:36.519Z,8.30
2019-06-20T11:01:38.108Z,8.08
2019-06-20T11:06:41.342Z,8.10
2019-06-20T11:11:43.112Z,7.42
2019-06-20T11:16:45.211Z,8.33
2019-06-20T11:21:50.784Z,10.03
2019-06-20T11:26:52.406Z,6.08
2019-06-20T11:31:54.076Z,4.42
2019-06-20T11:36:55.517Z,4.47
2019-06-20T11:41:57.006Z,3.40
2019-06-20T11:46:58.718Z,2.17
2019-06-20T11:52:00.189Z,2.17
2019-06-20T11:57:01.740Z,1.57
2019-06-20T12:02:03.278Z,1.50
2019-06-20T12:07:04.780Z,1.40
2019-06-20T12:12:06.344Z,1.60
2019-06-20T12:17:07.854Z,1.40
2019-06-20T12:22:09.382Z,1.20
2019-06-20T12:27:10.895Z,1.70
2019-06-20T12:32:12.471Z,1.62
2019-06-20T12:37:14.008Z,1.70
2019-06-20T12:42:15.521Z,1.77
2019-06-20T12:47:16.995Z,1.67
2019-06-20T12:52:18.434Z,1.95
2019-06-20T12:57:19.974Z,1.82
2019-06-20T13:02:21.483Z,1.90
2019-06-20T13:07:23.055Z,2.00
2019-06-20T13:12:24.675Z,2.33
2019-06-20T13:17:26.196Z,2.50
2019-06-20T13:22:27.595Z,2.92
2019-06-20T13:27:29.151Z,3.02
2019-06-20T13:32:30.654Z,3.60
2019-06-20T13:37:34.315Z,2.98
2019-06-20T13:42:35.837Z,3.95
2019-06-20T13:47:37.362Z,3.37
2019-06-20T13:52:42.811Z,4.30
2019-06-20T13:57:43.000Z,3.70
2019-06-20T14:02:46.892Z,3.85
2019-06-20T14:07:51.850Z,4.20
2019-06-20T14:12:52.002Z,5.05
2019-06-20T14:17:53.855Z,4.30
2019-06-20T14:22:56.658Z,3.52
2019-06-20T14:27:58.350Z,4.80
2019-06-20T14:33:01.609Z,3.92
2019-06-20T14:38:05.808Z,4.50
2019-06-20T14:43:07.338Z,4.42
2019-06-20T14:48:08.932Z,5.17
2019-06-20T14:53:10.484Z,4.45
2019-06-20T14:58:11.786Z,5.08
2019-06-20T15:03:13.366Z,4.95
2019-06-20T15:08:14.939Z,4.92
2019-06-20T15:13:16.461Z,4.50
2019-06-20T15:18:17.964Z,4.15
2019-06-20T15:23:19.374Z,3.80
2019-06-20T15:28:20.863Z,4.03
2019-06-20T15:33:23.532Z,4.12
2019-06-20T15:38:25.001Z,3.85
2019-06-20T15:43:26.506Z,4.30
2019-06-20T15:48:29.058Z,4.37
2019-06-20T15:53:30.548Z,4.37
2019-06-20T15:58:32.123Z,2.98
2019-06-20T16:03:33.608Z,3.77
2019-06-20T16:08:35.036Z,4.15
2019-06-20T16:13:36.522Z,9.23
2019-06-20T16:18:38.261Z,8.90
2019-06-20T16:23:39.787Z,14.47
2019-06-20T16:28:41.306Z,13.20
2019-06-20T16:33:42.794Z,14.38
2019-06-20T16:38:44.411Z,12.85
2019-06-20T16:43:45.975Z,10.15
2019-06-20T16:48:47.597Z,10.53
2019-06-20T16:53:49.128Z,11.95
2019-06-20T16:58:50.647Z,12.20
2019-06-20T17:03:52.149Z,13.62
2019-06-20T17:08:53.710Z,12.47
2019-06-20T17:13:55.103Z,12.82
2019-06-20T17:18:56.678Z,12.73
2019-06-20T17:23:58.245Z,11.85
2019-06-20T17:28:59.509Z,8.88
2019-06-20T17:34:01.009Z,8.48
2019-06-20T17:39:04.469Z,8.40
2019-06-20T17:44:05.858Z,7.78
2019-06-20T17:49:07.136Z,7.03
2019-06-20T17:54:08.486Z,6.72
2019-06-20T17:59:09.919Z,6.30
2019-06-20T18:04:14.038Z,5.53
2019-06-20T18:09:14.901Z,6.35
2019-06-20T18:14:16.440Z,4.78
2019-06-20T18:19:17.797Z,4.90
2019-06-20T18:24:21.317Z,4.72
2019-06-20T18:29:22.763Z,2.80
2019-06-20T18:34:30.290Z,2.45
2019-06-20T18:39:31.010Z,3.20
2019-06-20T18:44:32.546Z,3.20
2019-06-20T18:49:34.061Z,3.30
2019-06-20T18:54:35.778Z,4.20
2019-06-20T18:59:37.475Z,4.28
2019-06-20T19:04:48.004Z,4.08
2019-06-20T19:09:42.464Z,4.65
2019-06-20T19:14:44.032Z,3.42
2019-06-20T19:19:45.593Z,3.42
2019-06-20T19:24:47.325Z,3.42
2019-06-20T19:29:49.772Z,2.92
2019-06-20T19:35:01.334Z,2.70
2019-06-20T19:39:55.124Z,2.77
2019-06-20T19:44:56.530Z,2.80
2019-06-20T19:49:58.019Z,2.60
2019-06-20T19:54:59.546Z,2.58
2019-06-20T20:00:01.095Z,2.85
2019-06-20T20:05:18.426Z,2.33
2019-06-20T20:10:10.038Z,2.60
2019-06-20T20:15:11.584Z,3.05
2019-06-20T20:20:13.120Z,2.40
2019-06-20T20:25:14.699Z,2.25
2019-06-20T20:30:16.265Z,2.33
2019-06-20T20:35:31.535Z,2.15
2019-06-20T20:40:21.226Z,2.12
2019-06-20T20:45:22.736Z,2.50
2019-06-20T20:50:24.295Z,2.50
2019-06-20T20:55:25.905Z,2.60
2019-06-20T21:00:33.250Z,3.12
2019-06-20T21:05:50.437Z,2.65
2019-06-20T21:10:38.254Z,2.52
2019-06-20T21:15:39.669Z,3.05
2019-06-20T21:20:41.209Z,3.02
2019-06-20T21:25:42.706Z,2.33
2019-06-20T21:30:44.245Z,2.22
2019-06-20T21:35:45.648Z,2.70
2019-06-20T21:40:47.201Z,2.95
2019-06-20T21:45:48.702Z,2.80
2019-06-20T21:50:50.291Z,2.70
2019-06-20T21:55:51.901Z,3.08
2019-06-20T22:00:54.513Z,2.40
2019-06-20T22:05:56.098Z,2.60
2019-06-20T22:10:57.496Z,2.27
2019-06-20T22:15:59.042Z,1.75
2019-06-20T22:21:00.681Z,2.40
2019-06-20T22:26:02.298Z,2.02
2019-06-20T22:31:03.829Z,2.10
2019-06-20T22:36:05.372Z,2.10
2019-06-20T22:41:06.764Z,1.80
2019-06-20T22:46:08.183Z,2.20
2019-06-20T22:51:09.819Z,1.80
2019-06-20T22:56:11.329Z,2.10
2019-06-20T23:01:12.617Z,2.50
2019-06-20T23:06:14.125Z,2.40
2019-06-20T23:11:15.607Z,1.90
2019-06-20T23:16:17.146Z,2.70
2019-06-20T23:21:18.671Z,3.50
2019-06-20T23:26:20.197Z,2.25
2019-06-20T23:31:21.733Z,2.25
2019-06-20T23:36:23.368Z,2.00
2019-06-20T23:41:24.884Z,3.37
2019-06-20T23:46:26.281Z,2.17
2019-06-20T23:51:27.807Z,2.20
2019-06-20T23:56:29.323Z,2.45
